Time;durP1;ratioP1;P1;durP2;ratioP2;P2;SDS_P1;SDS_P2;PMS_P1;PMS_P2;Temp;Humidity;BMP_temperature;BMP_pressure;BME280_temperature;BME280_humidity;BME280_pressure;Samples;Min_cycle;Max_cycle;Signal;HPM_P1;HPM_P2
2022/09/25 00:01:35;;;;;;;;;;;15.70;99.90;;;;;;4919113;29;20046;-72
2022/09/25 00:04:02;;;;;;;;;;;15.60;99.90;;;;;;4924138;29;19911;-71
2022/09/25 00:06:31;;;;;;;;;;;15.50;99.90;;;;;;4927068;29;19983;-73
2022/09/25 00:09:00;;;;;;;;;;;15.60;99.90;;;;;;4927183;29;19912;-71
2022/09/25 00:11:29;;;;;;;;;;;15.50;99.90;;;;;;4937089;29;19910;-72
2022/09/25 00:13:56;;;;;;;;;;;15.50;99.90;;;;;;4946199;29;19919;-72
2022/09/25 00:16:25;;;;;;;;;;;15.50;99.90;;;;;;4943788;29;19911;-72
2022/09/25 00:21:37;;;;;;;;;;;15.70;99.90;;;;;;4936614;29;20043;-70
2022/09/25 00:24:06;;;;;;;;;;;15.80;99.90;;;;;;4936743;29;19911;-74
2022/09/25 00:26:35;;;;;;;;;;;15.90;99.90;;;;;;4936436;29;19922;-68
2022/09/25 00:29:02;;;;;;;;;;;16.00;99.90;;;;;;4936812;29;20034;-71
2022/09/25 00:31:29;;;;;;;;;;;16.10;99.90;;;;;;4936306;29;19922;-71
2022/09/25 00:33:57;;;;;;;;;;;16.10;99.90;;;;;;4936596;29;19915;-73
2022/09/25 00:36:23;;;;;;;;;;;16.20;99.90;;;;;;4936252;29;19988;-72
2022/09/25 00:38:50;;;;;;;;;;;16.40;99.90;;;;;;4936244;29;19930;-72
2022/09/25 00:41:19;;;;;;;;;;;16.50;99.90;;;;;;4932700;29;19915;-73
2022/09/25 00:43:54;;;;;;;;;;;16.70;99.90;;;;;;4936210;29;19918;-73
2022/09/25 00:46:40;;;;;;;;;;;16.70;99.90;;;;;;4936257;29;19934;-72
2022/09/25 00:49:15;;;;;;;;;;;16.80;99.90;;;;;;4935391;29;19918;-73
2022/09/25 00:51:53;;;;;;;;;;;16.80;99.90;;;;;;4936013;29;20377;-72
2022/09/25 00:54:23;;;;;;;;;;;16.90;99.90;;;;;;4936017;29;19915;-73
2022/09/25 00:56:51;;;;;;;;;;;17.00;99.90;;;;;;4935296;29;19918;-73
2022/09/25 00:59:23;;;;;;;;;;;17.20;99.90;;;;;;4935231;29;20370;-70
2022/09/25 01:01:50;;;;;;;;;;;17.50;99.90;;;;;;4936082;29;19981;-72
2022/09/25 01:04:21;;;;;;;;;;;17.50;99.90;;;;;;4935969;29;19915;-72
2022/09/25 01:06:49;;;;;;;;;;;17.70;99.90;;;;;;4934240;29;19934;-72
2022/09/25 01:09:16;;;;;;;;;;;18.00;99.90;;;;;;4934650;29;20391;-71
2022/09/25 01:11:44;;;;;;;;;;;18.40;99.90;;;;;;4935777;29;19917;-70
2022/09/25 01:14:16;;;;;;;;;;;18.70;99.90;;;;;;4935852;29;19917;-74
2022/09/25 01:16:45;;;;;;;;;;;19.10;99.90;;;;;;4935752;29;19921;-71
2022/09/25 01:19:12;;;;;;;;;;;19.10;99.90;;;;;;4934946;29;19977;-74
2022/09/25 01:21:43;;;;;;;;;;;19.10;98.80;;;;;;4935727;29;19914;-72
2022/09/25 01:24:27;;;;;;;;;;;19.10;98.40;;;;;;4933993;29;19954;-72
2022/09/25 01:27:00;;;;;;;;;;;19.30;97.50;;;;;;4948296;29;19939;-69
2022/09/25 01:29:36;;;;;;;;;;;19.30;97.40;;;;;;4941122;29;20532;-75
2022/09/25 01:32:05;;;;;;;;;;;19.10;97.10;;;;;;4937127;29;19918;-74
2022/09/25 01:35:01;;;;;;;;;;;19.00;97.00;;;;;;4937180;29;19917;-71
2022/09/25 01:37:32;;;;;;;;;;;18.90;96.70;;;;;;4933544;29;19966;-71
2022/09/25 01:40:07;;;;;;;;;;;18.90;96.70;;;;;;4934710;29;19923;-73
2022/09/25 01:42:48;;;;;;;;;;;18.80;97.10;;;;;;4935194;29;20339;-74
2022/09/25 01:45:19;;;;;;;;;;;18.60;96.80;;;;;;4935001;29;19938;-74
2022/09/25 01:47:48;;;;;;;;;;;18.80;96.80;;;;;;4935351;29;19911;-74
2022/09/25 01:50:25;;;;;;;;;;;18.80;95.90;;;;;;4934765;29;19911;-72
2022/09/25 01:52:54;;;;;;;;;;;18.80;96.60;;;;;;4935189;29;20378;-74
2022/09/25 01:55:34;;;;;;;;;;;18.90;97.70;;;;;;4934823;29;19915;-74
2022/09/25 01:58:01;;;;;;;;;;;18.80;97.50;;;;;;4935297;29;19919;-71
2022/09/25 02:00:28;;;;;;;;;;;18.80;98.40;;;;;;4934453;29;19922;-73
2022/09/25 02:02:57;;;;;;;;;;;18.80;98.30;;;;;;4935103;29;19931;-76
2022/09/25 02:05:30;;;;;;;;;;;18.80;97.90;;;;;;4934535;29;19919;-75
2022/09/25 02:07:59;;;;;;;;;;;18.80;97.30;;;;;;4934140;29;20420;-76
2022/09/25 02:10:33;;;;;;;;;;;18.70;97.40;;;;;;4934582;29;19911;-72
2022/09/25 02:13:04;;;;;;;;;;;18.70;98.10;;;;;;4935096;29;19919;-75
2022/09/25 02:15:33;;;;;;;;;;;18.60;97.80;;;;;;4934535;29;19917;-73
2022/09/25 02:20:50;;;;;;;;;;;18.80;98.10;;;;;;4914927;29;19973;-72
2022/09/25 02:23:17;;;;;;;;;;;18.90;97.30;;;;;;4915844;29;19974;-71
2022/09/25 02:25:45;;;;;;;;;;;19.00;96.90;;;;;;4915715;29;19923;-75
2022/09/25 02:28:12;;;;;;;;;;;19.00;96.50;;;;;;4915821;29;19918;-74
2022/09/25 02:30:39;;;;;;;;;;;19.00;97.10;;;;;;4915514;29;19912;-75
2022/09/25 02:33:05;;;;;;;;;;;19.00;96.90;;;;;;4921600;29;19998;-75
2022/09/25 02:35:32;;;;;;;;;;;19.00;96.40;;;;;;4934410;29;20286;-74
2022/09/25 02:37:59;;;;;;;;;;;19.00;96.80;;;;;;4935207;29;19915;-71
2022/09/25 02:40:35;;;;;;;;;;;19.00;96.80;;;;;;4937998;29;19946;-71
2022/09/25 02:43:18;;;;;;;;;;;19.00;96.00;;;;;;4938496;29;19973;-74
2022/09/25 02:45:56;;;;;;;;;;;19.00;95.30;;;;;;4938354;29;19918;-70
2022/09/25 02:48:29;;;;;;;;;;;19.10;95.30;;;;;;4926930;29;19958;-71
2022/09/25 02:51:06;;;;;;;;;;;19.00;95.80;;;;;;4918248;29;19943;-73
2022/09/25 02:53:38;;;;;;;;;;;19.20;95.70;;;;;;4919459;29;19950;-71
2022/09/25 02:56:09;;;;;;;;;;;19.20;96.00;;;;;;4919777;29;19915;-71
2022/09/25 02:58:55;;;;;;;;;;;19.30;95.50;;;;;;4919107;29;20326;-72
2022/09/25 03:01:24;;;;;;;;;;;19.20;95.90;;;;;;4918453;29;19934;-72
2022/09/25 03:03:52;;;;;;;;;;;19.20;95.70;;;;;;4942620;29;19987;-69
2022/09/25 03:06:20;;;;;;;;;;;19.20;96.20;;;;;;4943364;29;19915;-71
2022/09/25 03:08:50;;;;;;;;;;;19.30;95.50;;;;;;4938540;29;19921;-68
2022/09/25 03:11:20;;;;;;;;;;;19.40;95.90;;;;;;4937612;29;19922;-68
2022/09/25 03:13:54;;;;;;;;;;;19.50;95.40;;;;;;4937933;29;19934;-70
2022/09/25 03:16:33;;;;;;;;;;;19.50;96.40;;;;;;4937804;29;19915;-69
2022/09/25 03:19:00;;;;;;;;;;;19.40;96.30;;;;;;4917996;29;19923;-75
2022/09/25 03:21:27;;;;;;;;;;;19.60;96.20;;;;;;4918785;29;19915;-72
2022/09/25 03:23:55;;;;;;;;;;;19.50;95.40;;;;;;4918789;29;20386;-70
2022/09/25 03:26:24;;;;;;;;;;;19.40;95.40;;;;;;4919126;29;19961;-72
2022/09/25 03:28:51;;;;;;;;;;;19.40;98.00;;;;;;4918654;29;19911;-70
2022/09/25 03:31:18;;;;;;;;;;;19.40;98.50;;;;;;4918516;29;19915;-72
2022/09/25 03:33:45;;;;;;;;;;;19.40;98.40;;;;;;4938935;29;19911;-72
2022/09/25 03:36:13;;;;;;;;;;;19.30;99.70;;;;;;4937523;29;20009;-70
2022/09/25 03:38:41;;;;;;;;;;;19.20;99.50;;;;;;4937323;29;19993;-71
2022/09/25 03:41:09;;;;;;;;;;;19.40;98.80;;;;;;4937010;29;19968;-73
2022/09/25 03:43:36;;;;;;;;;;;19.30;99.20;;;;;;4937331;29;19911;-74
2022/09/25 03:46:10;;;;;;;;;;;19.30;99.70;;;;;;4936415;29;19922;-70
2022/09/25 03:48:37;;;;;;;;;;;19.30;99.80;;;;;;4918415;29;19918;-69
2022/09/25 03:51:05;;;;;;;;;;;19.30;99.90;;;;;;4916774;29;20002;-71
2022/09/25 03:53:32;;;;;;;;;;;19.20;99.70;;;;;;4918137;29;20390;-70
2022/09/25 03:55:59;;;;;;;;;;;19.10;99.90;;;;;;4918027;29;19912;-73
2022/09/25 03:58:26;;;;;;;;;;;19.00;99.90;;;;;;4918207;29;20005;-71
2022/09/25 04:00:56;;;;;;;;;;;19.10;99.90;;;;;;4917387;29;20458;-70
2022/09/25 04:03:23;;;;;;;;;;;19.00;99.90;;;;;;4917237;29;19958;-73
2022/09/25 04:05:50;;;;;;;;;;;18.90;99.90;;;;;;4917698;29;19938;-72
2022/09/25 04:08:16;;;;;;;;;;;18.90;99.90;;;;;;4917838;29;19950;-70
2022/09/25 04:10:43;;;;;;;;;;;18.70;99.90;;;;;;4921462;29;20278;-69
2022/09/25 04:13:11;;;;;;;;;;;18.70;99.90;;;;;;4935823;29;20021;-75
2022/09/25 04:15:39;;;;;;;;;;;18.70;99.90;;;;;;4936865;29;19919;-71
2022/09/25 04:18:05;;;;;;;;;;;18.70;99.90;;;;;;4936714;29;19937;-72
2022/09/25 04:20:32;;;;;;;;;;;18.80;99.90;;;;;;4936044;29;19966;-71
2022/09/25 04:22:59;;;;;;;;;;;18.80;99.90;;;;;;4936707;29;20370;-70
2022/09/25 04:25:26;;;;;;;;;;;18.70;99.90;;;;;;4935851;29;20050;-74
2022/09/25 04:27:54;;;;;;;;;;;18.70;99.90;;;;;;4936159;29;19919;-69
2022/09/25 04:30:24;;;;;;;;;;;18.80;99.90;;;;;;4936158;29;19962;-70
2022/09/25 04:35:36;;;;;;;;;;;18.60;99.90;;;;;;4936985;29;19969;-74
2022/09/25 04:38:03;;;;;;;;;;;18.70;99.90;;;;;;4936591;29;19911;-70
2022/09/25 04:40:30;;;;;;;;;;;18.60;99.90;;;;;;4943817;29;19923;-73
2022/09/25 04:43:00;;;;;;;;;;;18.70;99.90;;;;;;4945358;29;20009;-69
2022/09/25 04:45:32;;;;;;;;;;;18.80;99.60;;;;;;4936905;29;19915;-72
2022/09/25 04:47:59;;;;;;;;;;;18.80;99.80;;;;;;4936317;29;19971;-69
2022/09/25 04:50:27;;;;;;;;;;;18.80;99.70;;;;;;4935855;29;19922;-71
2022/09/25 04:52:55;;;;;;;;;;;18.80;99.90;;;;;;4935183;29;20506;-68
2022/09/25 04:55:23;;;;;;;;;;;18.80;99.90;;;;;;4935953;29;20409;-75
2022/09/25 04:57:51;;;;;;;;;;;18.60;99.90;;;;;;4936033;29;19925;-71
2022/09/25 05:00:18;;;;;;;;;;;18.60;99.90;;;;;;4935372;29;20361;-73
2022/09/25 05:02:46;;;;;;;;;;;18.60;99.90;;;;;;4935108;29;19965;-70
2022/09/25 05:05:13;;;;;;;;;;;18.50;99.90;;;;;;4935717;29;20277;-73
2022/09/25 05:07:39;;;;;;;;;;;18.50;99.90;;;;;;4935601;29;19915;-69
2022/09/25 05:10:09;;;;;;;;;;;18.50;99.90;;;;;;4935511;29;19934;-67
2022/09/25 05:12:36;;;;;;;;;;;18.60;99.90;;;;;;4936230;29;19910;-73
2022/09/25 05:15:03;;;;;;;;;;;18.50;99.90;;;;;;4935535;29;19922;-68
2022/09/25 05:17:30;;;;;;;;;;;18.40;99.90;;;;;;4935772;29;19965;-72
2022/09/25 05:19:56;;;;;;;;;;;18.40;99.90;;;;;;4934992;29;19919;-68
2022/09/25 05:22:23;;;;;;;;;;;18.40;99.90;;;;;;4928620;29;19911;-66
2022/09/25 05:24:51;;;;;;;;;;;18.40;99.90;;;;;;4915332;29;20082;-71
2022/09/25 05:27:18;;;;;;;;;;;18.40;99.90;;;;;;4916871;29;19922;-71
2022/09/25 05:29:45;;;;;;;;;;;18.30;99.90;;;;;;4917050;29;19911;-75
2022/09/25 05:32:12;;;;;;;;;;;18.40;99.90;;;;;;4922330;29;19922;-72
2022/09/25 05:34:39;;;;;;;;;;;18.30;99.90;;;;;;4923397;29;19915;-74
2022/09/25 05:37:06;;;;;;;;;;;18.30;99.90;;;;;;4916613;29;19911;-73
2022/09/25 05:39:32;;;;;;;;;;;18.20;99.90;;;;;;4916317;29;19919;-74
2022/09/25 05:42:01;;;;;;;;;;;18.20;99.90;;;;;;4916553;29;19918;-74
2022/09/25 05:44:27;;;;;;;;;;;18.20;99.90;;;;;;4916559;29;20346;-74
2022/09/25 05:46:56;;;;;;;;;;;18.20;99.90;;;;;;4916695;29;19922;-75
2022/09/25 05:49:40;;;;;;;;;;;18.20;99.90;;;;;;4915768;29;19922;-74
2022/09/25 05:52:07;;;;;;;;;;;18.10;99.90;;;;;;4916366;29;19911;-70
2022/09/25 05:54:34;;;;;;;;;;;18.20;99.90;;;;;;4915912;29;20002;-73
2022/09/25 05:57:00;;;;;;;;;;;18.20;99.90;;;;;;4916361;29;19915;-72
2022/09/25 05:59:27;;;;;;;;;;;18.20;99.90;;;;;;4915634;29;19923;-69
2022/09/25 06:01:54;;;;;;;;;;;18.20;99.90;;;;;;4916206;29;20009;-74
2022/09/25 06:04:20;;;;;;;;;;;18.20;99.90;;;;;;4916113;29;19962;-68
2022/09/25 06:06:47;;;;;;;;;;;18.20;99.90;;;;;;4916000;29;19969;-71
2022/09/25 06:09:15;;;;;;;;;;;18.10;99.90;;;;;;4915483;29;19918;-72
2022/09/25 06:11:46;;;;;;;;;;;18.10;99.90;;;;;;4927536;29;20005;-68
2022/09/25 06:14:13;;;;;;;;;;;18.10;99.90;;;;;;4940098;29;19915;-74
2022/09/25 06:16:40;;;;;;;;;;;18.00;99.90;;;;;;4952595;29;19923;-69
2022/09/25 06:19:07;;;;;;;;;;;18.10;99.90;;;;;;4948682;29;19958;-69
2022/09/25 06:21:34;;;;;;;;;;;18.10;99.90;;;;;;4941396;29;20370;-72
2022/09/25 06:24:00;;;;;;;;;;;18.10;99.90;;;;;;4941169;29;20366;-74
2022/09/25 06:26:27;;;;;;;;;;;18.00;99.90;;;;;;4940761;29;20091;-72
2022/09/25 06:28:59;;;;;;;;;;;17.90;99.90;;;;;;4939585;29;19915;-71
2022/09/25 06:31:26;;;;;;;;;;;17.90;99.90;;;;;;4940768;29;19950;-70
2022/09/25 06:33:52;;;;;;;;;;;17.90;99.90;;;;;;4941032;29;20005;-71
2022/09/25 06:36:19;;;;;;;;;;;17.90;99.90;;;;;;4941149;29;19921;-69
2022/09/25 06:38:46;;;;;;;;;;;17.80;99.90;;;;;;4940710;29;19911;-69
2022/09/25 06:41:12;;;;;;;;;;;17.70;99.90;;;;;;4940857;29;20455;-68
2022/09/25 06:43:39;;;;;;;;;;;17.70;99.90;;;;;;4939648;29;19918;-71
2022/09/25 06:46:06;;;;;;;;;;;17.70;99.90;;;;;;4940919;29;20394;-73
2022/09/25 06:48:32;;;;;;;;;;;17.70;99.90;;;;;;4938499;29;19943;-72
2022/09/25 06:50:59;;;;;;;;;;;17.60;99.90;;;;;;4940841;29;20168;-72
2022/09/25 06:53:26;;;;;;;;;;;17.70;99.90;;;;;;4941240;29;20340;-68
2022/09/25 06:55:55;;;;;;;;;;;17.60;99.90;;;;;;4940870;29;19922;-70
2022/09/25 06:58:24;;;;;;;;;;;17.60;99.90;;;;;;4940780;29;19943;-69
2022/09/25 07:00:51;;;;;;;;;;;17.60;99.90;;;;;;4940433;29;19923;-70
2022/09/25 07:06:04;;;;;;;;;;;17.50;99.90;;;;;;4940557;29;19922;-68
2022/09/25 07:08:31;;;;;;;;;;;17.40;99.90;;;;;;4940960;29;19911;-71
2022/09/25 07:10:58;;;;;;;;;;;17.50;99.90;;;;;;4940624;29;19970;-73
2022/09/25 07:13:27;;;;;;;;;;;17.40;99.90;;;;;;4940734;29;19911;-70
2022/09/25 07:15:55;;;;;;;;;;;17.30;99.90;;;;;;4940670;29;19911;-70
2022/09/25 07:18:22;;;;;;;;;;;17.30;99.90;;;;;;4939134;29;19919;-72
2022/09/25 07:20:49;;;;;;;;;;;17.20;99.90;;;;;;4940216;29;20017;-70
2022/09/25 07:23:17;;;;;;;;;;;17.20;99.90;;;;;;4940634;29;19911;-71
2022/09/25 07:25:45;;;;;;;;;;;17.20;99.90;;;;;;4937955;29;19911;-72
2022/09/25 07:28:13;;;;;;;;;;;17.10;99.90;;;;;;4937841;29;19911;-72
2022/09/25 07:30:40;;;;;;;;;;;17.10;99.90;;;;;;4937559;29;19919;-71
2022/09/25 07:33:07;;;;;;;;;;;17.10;99.90;;;;;;4937823;29;19954;-71
2022/09/25 07:35:34;;;;;;;;;;;17.00;99.90;;;;;;4937408;29;20294;-68
2022/09/25 07:38:01;;;;;;;;;;;17.00;99.90;;;;;;4937846;29;19965;-67
2022/09/25 07:40:34;;;;;;;;;;;16.90;99.90;;;;;;4937144;29;19923;-68
2022/09/25 07:43:01;;;;;;;;;;;16.90;99.90;;;;;;4937239;29;19915;-73
2022/09/25 07:45:28;;;;;;;;;;;16.90;99.90;;;;;;4937708;29;19911;-72
2022/09/25 07:47:59;;;;;;;;;;;16.90;99.90;;;;;;4935020;29;20305;-69
2022/09/25 07:50:26;;;;;;;;;;;16.90;99.90;;;;;;4934802;29;19921;-70
2022/09/25 07:52:53;;;;;;;;;;;16.80;99.90;;;;;;4943328;29;19911;-68
2022/09/25 07:55:20;;;;;;;;;;;16.80;99.90;;;;;;4940719;29;19950;-70
2022/09/25 07:57:48;;;;;;;;;;;16.80;99.90;;;;;;4935745;29;19911;-71
2022/09/25 08:00:14;;;;;;;;;;;16.80;99.90;;;;;;4934651;29;19931;-71
2022/09/25 08:02:41;;;;;;;;;;;16.80;99.90;;;;;;4923728;29;19919;-76
2022/09/25 08:05:08;;;;;;;;;;;16.70;99.90;;;;;;4916199;29;19915;-74
2022/09/25 08:07:35;;;;;;;;;;;16.70;99.90;;;;;;4915516;29;20005;-75
2022/09/25 08:10:02;;;;;;;;;;;16.70;99.90;;;;;;4916118;29;20382;-73
2022/09/25 08:12:29;;;;;;;;;;;16.70;99.90;;;;;;4933815;29;20345;-70
2022/09/25 08:14:56;;;;;;;;;;;16.70;99.90;;;;;;4935037;29;19919;-72
2022/09/25 08:17:22;;;;;;;;;;;16.60;99.90;;;;;;4935125;29;19915;-76
2022/09/25 08:19:49;;;;;;;;;;;16.60;99.90;;;;;;4934737;29;19978;-74
2022/09/25 08:22:16;;;;;;;;;;;16.50;99.90;;;;;;4934640;29;19919;-75
2022/09/25 08:24:42;;;;;;;;;;;16.40;99.90;;;;;;4935270;29;19921;-74
2022/09/25 08:27:10;;;;;;;;;;;16.40;99.90;;;;;;4934445;29;19919;-74
2022/09/25 08:29:37;;;;;;;;;;;16.30;99.90;;;;;;4949294;29;19915;-72
2022/09/25 08:32:03;;;;;;;;;;;16.40;99.90;;;;;;4934852;29;19984;-74
2022/09/25 08:34:30;;;;;;;;;;;16.30;99.90;;;;;;4934617;29;19914;-75
2022/09/25 08:36:57;;;;;;;;;;;16.40;99.90;;;;;;4934033;29;19974;-75
2022/09/25 08:39:24;;;;;;;;;;;16.30;99.90;;;;;;4934274;29;19919;-72
2022/09/25 08:41:54;;;;;;;;;;;16.30;99.90;;;;;;4934425;29;19914;-75
2022/09/25 08:44:28;;;;;;;;;;;16.40;99.90;;;;;;4934822;29;19966;-77
2022/09/25 08:50:01;;;;;;;;;;;16.30;99.90;;;;;;4934464;29;19957;-76
2022/09/25 08:52:30;;;;;;;;;;;16.30;99.90;;;;;;4933738;29;19918;-76
2022/09/25 08:54:56;;;;;;;;;;;16.30;99.90;;;;;;4923127;29;19915;-74
2022/09/25 08:57:23;;;;;;;;;;;16.30;99.90;;;;;;4914333;29;20282;-76
2022/09/25 08:59:54;;;;;;;;;;;16.20;99.90;;;;;;4914816;29;19931;-73
2022/09/25 09:02:41;;;;;;;;;;;16.20;99.90;;;;;;4914968;29;20306;-70
2022/09/25 09:05:16;;;;;;;;;;;16.20;99.90;;;;;;4915273;29;19946;-77
2022/09/25 09:07:45;;;;;;;;;;;16.20;99.90;;;;;;4914255;29;20010;-77
2022/09/25 09:10:30;;;;;;;;;;;16.20;99.90;;;;;;4929491;29;20422;-74
2022/09/25 09:13:03;;;;;;;;;;;16.30;99.90;;;;;;4915197;29;19942;-77
2022/09/25 09:15:39;;;;;;;;;;;16.30;99.90;;;;;;4915314;29;19916;-75
2022/09/25 09:18:19;;;;;;;;;;;16.30;99.90;;;;;;4915524;29;20283;-73
2022/09/25 09:20:56;;;;;;;;;;;16.20;99.90;;;;;;4914813;29;19958;-77
2022/09/25 09:23:25;;;;;;;;;;;16.20;99.90;;;;;;4919918;29;19915;-76
2022/09/25 09:26:00;;;;;;;;;;;16.10;99.90;;;;;;4924106;29;19994;-72
2022/09/25 09:28:30;;;;;;;;;;;16.10;99.90;;;;;;4927313;29;19939;-74
2022/09/25 09:31:18;;;;;;;;;;;16.00;99.90;;;;;;4933696;29;19925;-73
2022/09/25 09:34:00;;;;;;;;;;;16.00;99.90;;;;;;4940064;29;19958;-75
2022/09/25 09:36:30;;;;;;;;;;;16.00;99.90;;;;;;4943348;29;20389;-73
2022/09/25 09:39:00;;;;;;;;;;;16.00;99.90;;;;;;4942680;29;19950;-69
2022/09/25 09:41:39;;;;;;;;;;;15.90;99.90;;;;;;4930242;29;19926;-69
2022/09/25 09:44:18;;;;;;;;;;;16.00;99.90;;;;;;4921886;29;19915;-75
2022/09/25 09:47:04;;;;;;;;;;;15.90;99.90;;;;;;4914622;29;19915;-73
2022/09/25 09:49:41;;;;;;;;;;;15.90;99.90;;;;;;4893411;29;20272;-72
2022/09/25 09:52:10;;;;;;;;;;;15.90;99.90;;;;;;4915101;29;19966;-74
2022/09/25 09:54:46;;;;;;;;;;;15.90;99.90;;;;;;4914693;29;19922;-71
2022/09/25 09:57:17;;;;;;;;;;;16.00;99.90;;;;;;4914065;29;19915;-69
2022/09/25 10:00:07;;;;;;;;;;;15.90;99.90;;;;;;4913650;29;19931;-72
2022/09/25 10:02:39;;;;;;;;;;;15.90;99.90;;;;;;4914369;29;20359;-73
2022/09/25 10:05:09;;;;;;;;;;;15.90;99.90;;;;;;4914276;29;20382;-72
2022/09/25 10:07:38;;;;;;;;;;;15.90;99.90;;;;;;4914328;29;19923;-73
2022/09/25 10:10:16;;;;;;;;;;;15.80;99.90;;;;;;4914194;29;20367;-72
2022/09/25 10:12:44;;;;;;;;;;;15.80;99.90;;;;;;4913367;29;19919;-74
2022/09/25 10:15:34;;;;;;;;;;;15.80;99.90;;;;;;4914190;29;20426;-69
2022/09/25 10:18:01;;;;;;;;;;;15.70;99.90;;;;;;4914429;29;19919;-73
2022/09/25 10:21:00;;;;;;;;;;;15.80;99.90;;;;;;4915002;29;20284;-74
2022/09/25 10:23:31;;;;;;;;;;;15.80;99.90;;;;;;4902375;29;19986;-74
2022/09/25 10:25:57;;;;;;;;;;;15.80;99.90;;;;;;4913040;29;19967;-74
2022/09/25 10:28:29;;;;;;;;;;;15.70;99.90;;;;;;4913605;29;20029;-71
2022/09/25 10:30:56;;;;;;;;;;;15.70;99.90;;;;;;4914123;29;19959;-73
2022/09/25 10:33:28;;;;;;;;;;;15.70;99.90;;;;;;4913813;29;19918;-76
2022/09/25 10:35:55;;;;;;;;;;;15.70;99.90;;;;;;4914172;29;19942;-72
2022/09/25 10:38:21;;;;;;;;;;;15.80;99.90;;;;;;4912386;29;20713;-75
2022/09/25 10:40:56;;;;;;;;;;;15.80;99.90;;;;;;4914018;29;19919;-74
2022/09/25 10:43:23;;;;;;;;;;;15.80;99.90;;;;;;4913917;29;19922;-77
2022/09/25 10:46:04;;;;;;;;;;;15.70;99.90;;;;;;4914250;29;19915;-73
2022/09/25 10:51:20;;;;;;;;;;;15.70;99.90;;;;;;4913880;29;19934;-76
2022/09/25 10:53:50;;;;;;;;;;;15.70;99.90;;;;;;4913849;29;19915;-70
2022/09/25 10:56:21;;;;;;;;;;;15.60;99.90;;;;;;4932829;29;19926;-74
2022/09/25 10:58:52;;;;;;;;;;;15.60;99.90;;;;;;4932520;29;19919;-77
2022/09/25 11:01:19;;;;;;;;;;;15.60;99.90;;;;;;4936362;29;20017;-73
2022/09/25 11:03:46;;;;;;;;;;;15.60;99.90;;;;;;4952121;29;19911;-70
2022/09/25 11:06:23;;;;;;;;;;;15.60;99.90;;;;;;4943472;29;19918;-72
2022/09/25 11:09:02;;;;;;;;;;;15.60;99.90;;;;;;4934091;29;19919;-74
2022/09/25 11:11:30;;;;;;;;;;;15.60;99.90;;;;;;4936740;29;19915;-77
2022/09/25 11:14:02;;;;;;;;;;;15.50;99.90;;;;;;4936664;29;19915;-77
2022/09/25 11:16:44;;;;;;;;;;;15.50;99.90;;;;;;4936479;29;19915;-78
2022/09/25 11:19:12;;;;;;;;;;;15.50;99.90;;;;;;4935792;29;19915;-77
2022/09/25 11:21:58;;;;;;;;;;;15.50;99.90;;;;;;4936350;29;20637;-73
2022/09/25 11:24:43;;;;;;;;;;;15.50;99.90;;;;;;4936295;29;19918;-77
2022/09/25 11:27:30;;;;;;;;;;;15.60;99.90;;;;;;4935952;29;20382;-75
2022/09/25 11:30:09;;;;;;;;;;;15.60;99.90;;;;;;4932506;29;20390;-76
2022/09/25 11:32:42;;;;;;;;;;;15.50;99.90;;;;;;4946690;29;19922;-75
2022/09/25 11:35:11;;;;;;;;;;;15.60;99.90;;;;;;4939457;29;20350;-76
2022/09/25 11:38:01;;;;;;;;;;;15.50;99.90;;;;;;4936259;29;19915;-75
2022/09/25 11:43:43;;;;;;;;;;;15.50;99.90;;;;;;4935436;29;19962;-76
2022/09/25 11:46:27;;;;;;;;;;;15.60;99.90;;;;;;4935618;29;19919;-73
2022/09/25 11:49:14;;;;;;;;;;;15.50;99.90;;;;;;4935168;29;20278;-75
2022/09/25 11:52:04;;;;;;;;;;;15.40;99.90;;;;;;4935538;29;19921;-75
2022/09/25 11:54:46;;;;;;;;;;;15.40;99.90;;;;;;4935420;29;19914;-76
2022/09/25 11:57:25;;;;;;;;;;;15.40;99.90;;;;;;4935086;29;19911;-76
2022/09/25 11:59:58;;;;;;;;;;;15.40;99.90;;;;;;4935116;29;20462;-76
2022/09/25 12:02:56;;;;;;;;;;;15.40;99.90;;;;;;4934666;29;20646;-76
2022/09/25 12:05:28;;;;;;;;;;;15.40;99.90;;;;;;4935132;29;19918;-71
2022/09/25 12:07:58;;;;;;;;;;;15.40;99.90;;;;;;4935118;29;19954;-72
2022/09/25 12:10:31;;;;;;;;;;;15.40;99.90;;;;;;4934465;29;19974;-76
2022/09/25 12:13:05;;;;;;;;;;;15.30;99.90;;;;;;4935259;29;19911;-75
2022/09/25 12:15:49;;;;;;;;;;;15.40;99.90;;;;;;4935174;29;19942;-75
2022/09/25 12:18:42;;;;;;;;;;;15.30;99.90;;;;;;4934837;29;20282;-76
2022/09/25 12:21:14;;;;;;;;;;;15.40;99.90;;;;;;4932878;29;19969;-75
2022/09/25 12:23:50;;;;;;;;;;;15.30;99.90;;;;;;4935005;29;19911;-76
2022/09/25 12:26:21;;;;;;;;;;;15.30;99.90;;;;;;4935059;29;20428;-78
2022/09/25 12:28:51;;;;;;;;;;;15.30;99.90;;;;;;4934773;29;20003;-73
2022/09/25 12:31:39;;;;;;;;;;;15.30;99.90;;;;;;4934903;29;20437;-76
2022/09/25 12:34:05;;;;;;;;;;;15.30;99.90;;;;;;4934962;29;20366;-74
2022/09/25 12:36:39;;;;;;;;;;;15.30;99.90;;;;;;4934765;29;19911;-77
2022/09/25 12:39:07;;;;;;;;;;;15.30;99.90;;;;;;4948296;29;19915;-73
2022/09/25 12:41:40;;;;;;;;;;;15.20;99.90;;;;;;4941812;29;19914;-72
2022/09/25 12:44:31;;;;;;;;;;;15.20;99.90;;;;;;4935187;29;19910;-74
2022/09/25 12:47:03;;;;;;;;;;;15.20;99.90;;;;;;4934655;29;19911;-75
2022/09/25 12:49:36;;;;;;;;;;;15.20;99.90;;;;;;4933980;29;19986;-77
2022/09/25 12:52:12;;;;;;;;;;;15.10;99.90;;;;;;4934735;29;19922;-71
2022/09/25 12:54:51;;;;;;;;;;;15.20;99.90;;;;;;4934610;29;19918;-77
2022/09/25 12:57:25;;;;;;;;;;;15.20;99.90;;;;;;4933953;29;19921;-75
2022/09/25 13:00:18;;;;;;;;;;;15.20;99.90;;;;;;4933694;29;19934;-72
2022/09/25 13:02:58;;;;;;;;;;;15.10;99.90;;;;;;4931931;29;19918;-76
2022/09/25 13:05:33;;;;;;;;;;;15.10;99.90;;;;;;4934529;29;20301;-77
2022/09/25 13:08:13;;;;;;;;;;;15.10;99.90;;;;;;4926957;29;19911;-69
2022/09/25 13:10:40;;;;;;;;;;;15.10;99.90;;;;;;4918273;29;19927;-73
2022/09/25 13:13:18;;;;;;;;;;;15.10;99.90;;;;;;4934190;29;20381;-74
2022/09/25 13:15:51;;;;;;;;;;;15.00;99.90;;;;;;4933756;29;19922;-70
2022/09/25 13:18:19;;;;;;;;;;;14.90;99.90;;;;;;4933722;29;20315;-75
2022/09/25 13:21:15;;;;;;;;;;;14.90;99.90;;;;;;4934045;29;19926;-74
2022/09/25 13:23:42;;;;;;;;;;;14.90;99.90;;;;;;4924755;29;19915;-74
2022/09/25 13:26:17;;;;;;;;;;;14.90;99.90;;;;;;4933273;29;19915;-72
2022/09/25 13:28:52;;;;;;;;;;;14.80;99.90;;;;;;4933442;29;19921;-71
2022/09/25 13:31:26;;;;;;;;;;;14.90;99.90;;;;;;4933247;29;19946;-72
2022/09/25 13:34:02;;;;;;;;;;;14.90;99.90;;;;;;4941021;29;19910;-73
2022/09/25 13:36:37;;;;;;;;;;;14.90;99.90;;;;;;4933295;29;19925;-73
2022/09/25 13:42:18;;;;;;;;;;;14.80;99.90;;;;;;4933604;29;19922;-74
2022/09/25 13:44:45;;;;;;;;;;;14.80;99.90;;;;;;4933860;29;20289;-75
2022/09/25 13:47:23;;;;;;;;;;;14.80;99.90;;;;;;4933248;29;20001;-74
2022/09/25 13:49:55;;;;;;;;;;;14.70;99.90;;;;;;4933323;29;20374;-73
2022/09/25 13:53:32;;;;;;;;;;;14.70;99.90;;;;;;4933657;29;19918;-71
2022/09/25 13:55:40;;;;;;;;;;;14.70;99.90;;;;;;4925111;29;19981;-74
2022/09/25 13:58:22;;;;;;;;;;;14.70;99.90;;;;;;4933046;29;19918;-76
2022/09/25 14:00:56;;;;;;;;;;;14.70;99.90;;;;;;4932249;29;20400;-73
2022/09/25 14:03:30;;;;;;;;;;;14.60;99.90;;;;;;4931897;29;20345;-75
2022/09/25 14:05:58;;;;;;;;;;;14.60;99.90;;;;;;4933265;29;20293;-74
2022/09/25 14:08:26;;;;;;;;;;;14.60;99.90;;;;;;4932692;29;20452;-74
2022/09/25 14:10:56;;;;;;;;;;;14.50;99.90;;;;;;4934721;29;19954;-73
2022/09/25 14:13:24;;;;;;;;;;;14.50;99.90;;;;;;4948051;29;20307;-74
2022/09/25 14:15:53;;;;;;;;;;;14.50;99.90;;;;;;4951355;29;19921;-74
2022/09/25 14:18:23;;;;;;;;;;;14.50;99.90;;;;;;4943939;29;19957;-73
2022/09/25 14:20:50;;;;;;;;;;;14.50;99.90;;;;;;4933602;29;19923;-71
2022/09/25 14:23:20;;;;;;;;;;;14.50;99.90;;;;;;4933838;29;19923;-72
2022/09/25 14:25:55;;;;;;;;;;;14.50;99.90;;;;;;4934009;29;20282;-72
2022/09/25 14:28:26;;;;;;;;;;;14.50;99.90;;;;;;4935873;29;20014;-73
2022/09/25 14:31:13;;;;;;;;;;;14.50;99.90;;;;;;4934472;29;20318;-69
2022/09/25 14:33:57;;;;;;;;;;;14.50;99.90;;;;;;4935013;29;20080;-67
2022/09/25 14:36:42;;;;;;;;;;;14.50;99.90;;;;;;4937984;29;19918;-67
2022/09/25 14:39:08;;;;;;;;;;;14.50;99.90;;;;;;4936890;29;19953;-67
2022/09/25 14:41:45;;;;;;;;;;;14.50;99.90;;;;;;4936486;29;19974;-67
2022/09/25 14:44:34;;;;;;;;;;;14.50;99.90;;;;;;4936474;29;19915;-68
2022/09/25 14:47:02;;;;;;;;;;;14.50;99.90;;;;;;4936379;29;20030;-68
2022/09/25 14:49:32;;;;;;;;;;;14.50;99.90;;;;;;4936114;29;20271;-67
2022/09/25 14:52:01;;;;;;;;;;;14.50;99.90;;;;;;4936588;29;20370;-67
2022/09/25 14:54:31;;;;;;;;;;;14.50;99.90;;;;;;4935233;29;20358;-68
2022/09/25 14:56:58;;;;;;;;;;;14.50;99.90;;;;;;4936150;29;19915;-66
2022/09/25 14:59:31;;;;;;;;;;;14.40;99.90;;;;;;4935216;29;19978;-70
2022/09/25 15:02:01;;;;;;;;;;;14.40;99.90;;;;;;4936074;29;19914;-67
2022/09/25 15:04:32;;;;;;;;;;;14.40;99.90;;;;;;4936367;29;19911;-69